Time;durP1;ratioP1;P1;durP2;ratioP2;P2;SDS_P1;SDS_P2;PMS_P1;PMS_P2;Temp;Humidity;BMP_temperature;BMP_pressure;BME280_temperature;BME280_humidity;BME280_pressure;Samples;Min_cycle;Max_cycle;Signal;HPM_P1;HPM_P2
2022/05/26 00:00:47;;;;;;;9.75;3.77;;;;;;;18.71;43.86;98858.24;1781869;80;21005;-41
2022/05/26 00:03:14;;;;;;;7.80;3.55;;;;;;;18.70;44.11;98857.28;1781955;80;21115;-41
2022/05/26 00:05:42;;;;;;;9.03;3.55;;;;;;;18.66;44.38;98849.91;1775330;80;21033;-41
2022/05/26 00:08:09;;;;;;;4.70;3.30;;;;;;;18.63;44.71;98846.66;1773722;80;21220;-41
2022/05/26 00:10:37;;;;;;;8.65;3.47;;;;;;;18.61;44.83;98849.63;1773629;80;20969;-41
2022/05/26 00:13:05;;;;;;;7.37;3.70;;;;;;;18.59;44.98;98847.30;1773860;80;20930;-41
2022/05/26 00:15:32;;;;;;;7.45;3.60;;;;;;;18.57;45.21;98849.72;1773841;80;21012;-41
2022/05/26 00:17:59;;;;;;;10.15;3.35;;;;;;;18.55;45.32;98847.98;1773868;80;21052;-41
2022/05/26 00:20:26;;;;;;;8.63;3.77;;;;;;;18.54;45.31;98839.56;1750647;80;21217;-41
2022/05/26 00:22:53;;;;;;;9.38;3.75;;;;;;;18.53;45.54;98843.53;1773580;80;20984;-41
2022/05/26 00:25:19;;;;;;;9.35;3.00;;;;;;;18.53;45.72;98840.79;1773959;80;20972;-41
2022/05/26 00:27:46;;;;;;;11.33;3.58;;;;;;;18.52;45.81;98837.06;1773510;80;21012;-41
2022/05/26 00:30:14;;;;;;;5.45;2.70;;;;;;;18.49;45.94;98840.66;1773585;80;21550;-41
2022/05/26 00:32:41;;;;;;;9.33;3.58;;;;;;;18.46;45.98;98836.78;1773613;80;21208;-41
2022/05/26 00:35:08;;;;;;;7.62;3.15;;;;;;;18.45;46.17;98840.72;1773620;80;21512;-41
2022/05/26 00:37:36;;;;;;;5.00;2.87;;;;;;;18.44;46.22;98836.45;1773728;80;21017;-41
2022/05/26 00:40:06;;;;;;;6.22;2.47;;;;;;;18.43;46.19;98836.27;1768382;80;21080;-41
2022/05/26 00:42:32;;;;;;;7.78;2.62;;;;;;;18.43;46.22;98836.27;1773898;80;21040;-41
2022/05/26 00:44:59;;;;;;;7.20;2.70;;;;;;;18.43;46.28;98834.13;1773333;80;23143;-41
2022/05/26 00:47:28;;;;;;;5.60;2.75;;;;;;;18.43;46.21;98832.16;1773350;80;20965;-41
2022/05/26 00:49:59;;;;;;;10.10;2.72;;;;;;;18.44;46.13;98821.95;1774025;80;20989;-41
2022/05/26 00:52:33;;;;;;;5.17;2.47;;;;;;;18.44;46.02;98819.98;1773589;80;21555;-41
2022/05/26 00:55:05;;;;;;;10.63;2.55;;;;;;;18.46;45.94;98813.45;1772849;80;21033;-41
2022/05/26 00:57:36;;;;;;;7.00;2.60;;;;;;;18.47;45.90;98812.26;1773568;80;21109;-41
2022/05/26 01:00:11;;;;;;;8.53;2.70;;;;;;;18.50;45.76;98819.63;1773798;80;21535;-41
2022/05/26 01:02:45;;;;;;;20.70;3.12;;;;;;;18.52;45.55;98827.45;1772705;80;21028;-41
2022/05/26 01:05:22;;;;;;;7.95;2.52;;;;;;;18.53;45.50;98818.83;1777710;80;20968;-41
2022/05/26 01:07:50;;;;;;;11.15;3.02;;;;;;;18.55;45.51;98815.05;1782184;80;20960;-41
2022/05/26 01:10:18;;;;;;;8.23;2.47;;;;;;;18.55;45.43;98813.67;1782142;80;21139;-41
2022/05/26 01:12:45;;;;;;;15.75;2.60;;;;;;;18.55;45.35;98811.52;1781967;80;21020;-41
2022/05/26 01:15:16;;;;;;;7.03;2.42;;;;;;;18.55;45.28;98812.30;1781863;80;21009;-41
2022/05/26 01:18:12;;;;;;;12.40;2.45;;;;;;;18.51;45.09;98817.06;1782209;80;21068;-41
2022/05/26 01:21:02;;;;;;;9.68;2.40;;;;;;;18.50;45.25;98814.14;1781849;80;21633;-41
2022/05/26 01:23:40;;;;;;;29.40;3.30;;;;;;;18.45;45.19;98818.77;1782433;80;22163;-41
2022/05/26 01:26:31;;;;;;;6.60;2.70;;;;;;;18.40;45.26;98813.00;1782131;80;21484;-41
2022/05/26 01:29:07;;;;;;;5.15;2.58;;;;;;;18.35;45.28;98808.78;1782037;80;21630;-41
2022/05/26 01:32:07;;;;;;;12.90;2.40;;;;;;;18.31;45.33;98801.23;1782197;80;21028;-41
2022/05/26 01:35:12;;;;;;;10.20;2.58;;;;;;;18.29;45.40;98800.90;1782428;80;21045;-41
2022/05/26 01:38:13;;;;;;;5.30;2.55;;;;;;;18.24;45.50;98798.66;1782423;80;21539;-41
2022/05/26 01:40:55;;;;;;;6.67;2.35;;;;;;;18.17;45.57;98800.16;1782040;80;21519;-41
2022/05/26 01:43:54;;;;;;;7.08;2.98;;;;;;;18.12;45.83;98788.30;1782381;80;21502;-41
2022/05/26 01:46:31;;;;;;;6.72;2.40;;;;;;;18.07;46.07;98787.43;1782314;80;21032;-41
2022/05/26 01:49:14;;;;;;;10.98;2.42;;;;;;;18.00;46.47;98779.36;1782170;80;21503;-41
2022/05/26 01:51:56;;;;;;;8.58;2.17;;;;;;;17.95;46.75;98782.00;1773699;80;21214;-41
2022/05/26 01:54:49;;;;;;;10.38;2.40;;;;;;;17.89;47.01;98782.91;1781621;80;21497;-41
2022/05/26 01:57:30;;;;;;;6.92;2.20;;;;;;;17.85;46.98;98778.09;1782290;80;21499;-41
2022/05/26 02:00:05;;;;;;;9.25;2.75;;;;;;;17.77;47.16;98774.11;1780988;80;21587;-41
2022/05/26 02:02:42;;;;;;;8.25;2.35;;;;;;;17.73;47.19;98777.52;1781549;80;21029;-41
2022/05/26 02:05:14;;;;;;;7.22;2.62;;;;;;;17.70;47.23;98778.97;1777920;80;21794;-41
2022/05/26 02:07:46;;;;;;;7.15;2.33;;;;;;;17.68;47.33;98772.53;1768547;81;20930;-41
2022/05/26 02:10:22;;;;;;;9.35;2.40;;;;;;;17.65;47.43;98779.45;1768629;81;20957;-41
2022/05/26 02:12:59;;;;;;;17.45;2.58;;;;;;;17.62;47.73;98781.05;1767424;80;21033;-41
2022/05/26 02:15:44;;;;;;;8.63;2.30;;;;;;;17.61;47.74;98779.53;1768869;81;21046;-41
2022/05/26 02:18:22;;;;;;;6.37;2.42;;;;;;;17.59;48.34;98789.35;1768638;81;21505;-41
2022/05/26 02:20:56;;;;;;;7.85;2.33;;;;;;;17.55;49.69;98807.80;1768543;81;21043;-41
2022/05/26 02:23:45;;;;;;;5.10;2.50;;;;;;;17.50;51.81;98796.73;1768620;80;21029;-41
2022/05/26 02:26:13;;;;;;;6.05;2.58;;;;;;;17.37;53.95;98789.73;1768563;81;21580;-41
2022/05/26 02:31:28;;;;;;;6.10;2.65;;;;;;;17.22;54.66;98795.27;1690548;84;21556;-41
2022/05/26 02:33:58;;;;;;;5.62;2.55;;;;;;;17.12;55.13;98786.63;1690744;84;21984;-41
2022/05/26 02:36:25;;;;;;;;;;;;;;;17.05;55.87;98784.00;1723045;80;20990;-41
2022/05/26 02:38:53;;;;;;;7.62;2.90;;;;;;;16.97;56.59;98797.63;1768645;81;20254;-41
2022/05/26 02:41:20;;;;;;;4.58;2.62;;;;;;;16.80;57.25;98787.13;1768635;81;21009;-41
2022/05/26 02:43:47;;;;;;;7.62;2.85;;;;;;;16.74;57.94;98787.44;1768576;81;23217;-41
2022/05/26 02:46:41;;;;;;;8.95;3.47;;;;;;;16.67;60.97;98788.90;1768791;81;21084;-41
2022/05/26 02:49:28;;;;;;;5.85;2.42;;;;;;;16.53;63.29;98779.50;1768693;80;20922;-41
2022/05/26 02:52:18;;;;;;;10.05;3.33;;;;;;;16.34;64.28;98776.84;1766414;80;21793;-41
2022/05/26 02:55:19;;;;;;;6.50;2.77;;;;;;;16.21;65.13;98766.87;1676254;85;21017;-41
2022/05/26 02:58:13;;;;;;;12.70;2.90;;;;;;;16.00;66.99;98770.05;1695179;84;21292;-41
2022/05/26 03:01:23;;;;;;;6.50;2.50;;;;;;;15.75;67.97;98771.52;1699287;84;21083;-41
2022/05/26 03:04:08;;;;;;;;;;;;;;;15.52;69.13;98768.84;1771670;81;20981;-41
2022/05/26 03:06:46;;;;;;;13.48;3.98;;;;;;;15.40;69.76;98774.00;1769006;81;20200;-41
2022/05/26 03:09:14;;;;;;;4.53;2.60;;;;;;;15.21;71.12;98773.41;1769327;81;21021;-41
2022/05/26 03:11:50;;;;;;;6.22;2.98;;;;;;;15.13;70.74;98766.47;1768741;81;21795;-41
2022/05/26 03:14:18;;;;;;;6.22;2.92;;;;;;;15.07;71.27;98770.80;1768944;81;21615;-41
2022/05/26 03:16:44;;;;;;;6.17;3.10;;;;;;;15.01;71.74;98765.58;1769128;81;21029;-41
2022/05/26 03:19:12;;;;;;;4.87;2.90;;;;;;;14.99;71.87;98765.23;1768652;81;21592;-41
2022/05/26 03:21:40;;;;;;;6.47;2.70;;;;;;;14.96;72.57;98763.28;1768753;81;21006;-41
2022/05/26 03:24:07;;;;;;;6.83;3.15;;;;;;;14.94;72.75;98750.65;1768730;81;21150;-41
2022/05/26 03:26:34;;;;;;;7.62;2.98;;;;;;;14.93;73.11;98760.59;1768522;81;21026;-41
2022/05/26 03:29:02;;;;;;;5.87;3.25;;;;;;;14.90;73.28;98754.00;1768738;81;21527;-41
2022/05/26 03:31:30;;;;;;;10.13;3.30;;;;;;;14.88;73.38;98758.30;1768824;81;21012;-41
2022/05/26 03:42:16;;;;;;;8.53;3.05;;;;;;;14.79;74.20;98755.45;1768841;81;21061;-41
2022/05/26 03:44:44;;;;;;;6.78;2.95;;;;;;;14.80;74.18;98764.41;1768589;81;21073;-41
2022/05/26 03:47:11;;;;;;;7.85;2.70;;;;;;;14.81;74.17;98759.14;1768709;81;21022;-41
2022/05/26 03:49:38;;;;;;;8.63;3.20;;;;;;;14.81;74.34;98761.88;1768619;81;21194;-41
2022/05/26 03:52:06;;;;;;;5.55;3.08;;;;;;;14.82;74.04;98767.50;1768699;81;21012;-41
2022/05/26 03:54:33;;;;;;;3.47;2.72;;;;;;;14.83;73.95;98764.18;1768668;81;21021;-42
2022/05/26 03:57:00;;;;;;;5.33;3.08;;;;;;;14.82;74.11;98762.62;1768725;81;20961;-41
2022/05/26 03:59:26;;;;;;;10.55;3.50;;;;;;;14.82;73.97;98767.50;1768742;81;21575;-41
2022/05/26 04:01:54;;;;;;;8.30;3.45;;;;;;;14.82;73.97;98772.95;1768511;81;23191;-41
2022/05/26 04:04:21;;;;;;;5.85;3.12;;;;;;;14.83;74.00;98773.73;1768660;81;20903;-41
2022/05/26 04:06:48;;;;;;;5.65;2.90;;;;;;;14.85;73.78;98777.62;1767347;81;21012;-41
2022/05/26 04:09:15;;;;;;;5.92;3.27;;;;;;;14.84;73.59;98778.80;1766814;81;20971;-41
2022/05/26 04:11:43;;;;;;;5.30;3.25;;;;;;;14.82;73.71;98779.00;1766824;81;21018;-41
2022/05/26 04:14:09;;;;;;;10.13;3.55;;;;;;;14.79;73.99;98787.41;1766828;81;21225;-41
2022/05/26 04:16:36;;;;;;;6.42;3.20;;;;;;;14.77;74.40;98791.12;1766752;81;21028;-41
2022/05/26 04:19:02;;;;;;;9.68;3.42;;;;;;;14.73;74.78;98794.46;1766958;81;21026;-41
2022/05/26 04:21:29;;;;;;;6.47;3.15;;;;;;;14.69;74.97;98790.41;1766885;81;20994;-41
2022/05/26 04:23:58;;;;;;;6.25;3.30;;;;;;;14.62;75.50;98789.07;1766968;81;21563;-41
2022/05/26 04:26:24;;;;;;;8.18;3.40;;;;;;;14.55;76.20;98788.36;1766800;81;23144;-41
2022/05/26 04:28:51;;;;;;;8.08;3.40;;;;;;;14.49;76.61;98785.27;1766805;81;21657;-41
2022/05/26 04:31:18;;;;;;;7.85;3.42;;;;;;;14.46;76.94;98790.17;1766929;81;21092;-41
2022/05/26 04:33:45;;;;;;;8.95;3.80;;;;;;;14.45;77.23;98794.06;1766856;81;20954;-41
2022/05/26 04:36:12;;;;;;;13.22;3.52;;;;;;;14.48;77.65;98790.53;1767134;81;20949;-41
2022/05/26 04:38:38;;;;;;;12.47;3.00;;;;;;;14.52;77.79;98789.16;1766943;81;21103;-41
2022/05/26 04:41:07;;;;;;;11.38;3.90;;;;;;;14.55;78.11;98797.91;1767090;81;21310;-41
2022/05/26 04:43:35;;;;;;;;;;;;;;;14.55;78.42;98795.17;1769227;81;20922;-41
2022/05/26 04:46:03;;;;;;;8.03;4.00;;;;;;;14.56;78.84;98792.64;1766706;81;20161;-41
2022/05/26 04:48:29;;;;;;;7.80;3.33;;;;;;;14.50;79.52;98794.23;1766670;81;21045;-41
2022/05/26 04:50:57;;;;;;;5.35;3.10;;;;;;;14.57;79.87;98788.75;1766756;81;22215;-41
2022/05/26 04:53:24;;;;;;;8.05;3.60;;;;;;;14.63;79.90;98787.13;1766581;81;21806;-41
2022/05/26 04:55:54;;;;;;;5.87;3.27;;;;;;;14.68;80.34;98794.89;1766436;81;21554;-41
2022/05/26 04:58:21;;;;;;;11.53;3.40;;;;;;;14.70;80.39;98793.91;1767140;81;21061;-41
2022/05/26 05:00:48;;;;;;;9.35;3.90;;;;;;;14.72;80.46;98794.27;1766861;81;21524;-41
2022/05/26 05:03:14;;;;;;;8.35;3.92;;;;;;;14.77;80.68;98789.75;1766548;81;23129;-41
2022/05/26 05:05:41;;;;;;;8.50;4.30;;;;;;;14.81;80.85;98793.26;1766775;80;21489;-42
2022/05/26 05:08:08;;;;;;;7.75;3.77;;;;;;;14.85;81.13;98800.05;1768754;81;21017;-41
2022/05/26 05:10:35;;;;;;;9.10;3.50;;;;;;;14.90;81.22;98799.03;1768548;81;20990;-41
2022/05/26 05:13:01;;;;;;;6.90;3.75;;;;;;;14.95;81.59;98800.55;1768498;81;21089;-41
2022/05/26 05:15:58;;;;;;;7.97;3.72;;;;;;;14.98;81.89;98800.52;1748969;81;21225;-41
2022/05/26 05:18:25;;;;;;;7.53;4.05;;;;;;;15.05;82.35;98796.97;1768889;81;20969;-41
2022/05/26 05:20:52;;;;;;;6.03;3.45;;;;;;;15.08;82.96;98802.39;1768559;81;20925;-41
2022/05/26 05:23:19;;;;;;;6.08;3.60;;;;;;;15.13;83.38;98808.78;1768608;81;20922;-41
2022/05/26 05:25:48;;;;;;;5.70;3.60;;;;;;;15.20;83.18;98821.00;1768640;81;21085;-41
2022/05/26 05:28:21;;;;;;;3.40;3.02;;;;;;;15.23;83.37;98830.36;1768870;81;21233;-41
2022/05/26 05:31:01;;;;;;;3.08;2.20;;;;;;;15.27;83.16;98831.69;1768909;81;20926;-41
2022/05/26 05:33:40;;;;;;;;;;;;;;;15.31;82.25;98840.03;1771374;81;21025;-41
2022/05/26 05:36:20;;;;;;;4.08;1.70;;;;;;;15.31;80.34;98840.62;1768825;81;20153;-41
2022/05/26 05:38:47;;;;;;;4.35;1.75;;;;;;;15.25;79.73;98850.44;1764228;80;21092;-41
2022/05/26 05:41:13;;;;;;;2.30;1.70;;;;;;;15.24;79.36;98855.13;1768391;80;21072;-41
2022/05/26 05:43:40;;;;;;;2.98;1.92;;;;;;;15.19;78.82;98850.87;1768748;81;20919;-41
2022/05/26 05:46:08;;;;;;;1.72;1.60;;;;;;;15.14;78.83;98854.03;1768690;81;21079;-41
2022/05/26 05:48:35;;;;;;;2.10;1.80;;;;;;;15.10;78.81;98860.08;1768992;81;20950;-41
2022/05/26 05:51:03;;;;;;;4.62;1.67;;;;;;;15.04;78.82;98857.61;1768637;81;21535;-41
2022/05/26 05:53:30;;;;;;;1.30;1.20;;;;;;;15.00;78.37;98864.28;1766663;81;21105;-41
2022/05/26 05:55:57;;;;;;;1.82;1.32;;;;;;;14.97;78.31;98865.84;1738167;82;20918;-41
2022/05/26 05:58:25;;;;;;;1.70;1.60;;;;;;;14.91;77.96;98867.43;1738320;82;21043;-41
2022/05/26 06:00:52;;;;;;;2.87;1.50;;;;;;;14.93;78.36;98871.14;1738096;82;21666;-41
2022/05/26 06:03:19;;;;;;;4.47;1.60;;;;;;;14.94;78.49;98866.65;1738270;82;21088;-41
2022/05/26 06:05:45;;;;;;;1.45;1.35;;;;;;;14.96;78.46;98867.63;1737725;82;21100;-42
2022/05/26 06:08:12;;;;;;;1.70;1.60;;;;;;;14.97;78.34;98861.74;1711008;83;21013;-41
2022/05/26 06:10:39;;;;;;;1.90;1.62;;;;;;;14.97;78.54;98860.97;1710978;83;21053;-41
2022/05/26 06:13:07;;;;;;;2.85;1.70;;;;;;;14.94;78.55;98857.09;1710887;83;21040;-41
2022/05/26 06:15:36;;;;;;;2.95;1.75;;;;;;;14.94;78.80;98854.37;1711053;83;21049;-41
2022/05/26 06:18:06;;;;;;;1.92;1.40;;;;;;;14.92;78.63;98875.03;1710792;83;21236;-41
2022/05/26 06:21:26;;;;;;;5.47;1.37;;;;;;;14.90;78.74;98833.73;1782428;79;22784;-40
2022/05/26 06:23:56;;;;;;;1.62;1.45;;;;;;;14.80;78.78;98868.11;1755143;81;20899;-41
2022/05/26 06:26:26;;;;;;;3.00;1.42;;;;;;;14.76;78.77;98871.45;1754924;81;21133;-41
2022/05/26 06:31:39;;;;;;;2.35;1.70;;;;;;;14.70;78.56;98888.04;1754936;81;21017;-41
2022/05/26 06:39:35;;;;;;;1.50;1.40;;;;;;;14.56;77.63;98901.75;1755019;81;21264;-41
2022/05/26 06:42:07;;;;;;;1.47;1.37;;;;;;;14.50;78.11;98906.06;1754821;81;21013;-41
2022/05/26 06:44:43;;;;;;;2.35;1.85;;;;;;;14.50;78.35;98908.78;1754939;81;21580;-41
2022/05/26 06:47:13;;;;;;;1.70;1.60;;;;;;;14.49;78.71;98920.86;1754976;81;20978;-41
2022/05/26 06:49:41;;;;;;;3.08;1.60;;;;;;;14.46;78.86;98914.27;1755301;81;21035;-41
2022/05/26 06:52:10;;;;;;;5.62;1.40;;;;;;;14.45;78.92;98921.47;1754950;81;22161;-41
2022/05/26 06:54:40;;;;;;;1.60;1.42;;;;;;;14.43;78.78;98911.53;1754967;81;21002;-41
2022/05/26 06:57:06;;;;;;;7.05;1.75;;;;;;;14.44;78.84;98917.18;1755094;81;20978;-41
2022/05/26 06:59:34;;;;;;;1.85;1.50;;;;;;;14.43;78.86;98921.86;1755055;81;21038;-41
2022/05/26 07:02:01;;;;;;;1.67;1.40;;;;;;;14.42;78.45;98923.05;1754842;81;21042;-41
2022/05/26 07:04:28;;;;;;;4.45;1.57;;;;;;;14.43;78.54;98922.44;1755145;81;21103;-41
2022/05/26 07:06:55;;;;;;;2.47;1.50;;;;;;;14.44;78.63;98921.27;1754950;81;21018;-41
2022/05/26 07:09:23;;;;;;;1.50;1.40;;;;;;;14.44;78.18;98921.27;1754906;81;21023;-41
2022/05/26 07:11:49;;;;;;;2.35;1.70;;;;;;;14.42;78.13;98927.73;1755099;81;21556;-41
2022/05/26 07:14:16;;;;;;;1.70;1.60;;;;;;;14.39;78.07;98923.83;1755109;81;20990;-41
2022/05/26 07:16:45;;;;;;;1.72;1.55;;;;;;;14.39;78.52;98925.77;1755130;81;21263;-41
2022/05/26 07:19:13;;;;;;;2.20;1.60;;;;;;;14.44;79.16;98928.09;1755236;81;21007;-41
2022/05/26 07:21:43;;;;;;;1.87;1.50;;;;;;;14.53;78.82;98930.59;1750321;81;22215;-41
2022/05/26 07:24:10;;;;;;;2.43;1.60;;;;;;;14.62;78.05;98939.73;1750200;82;20991;-41
2022/05/26 07:26:37;;;;;;;2.77;1.50;;;;;;;14.67;76.06;98933.84;1750492;82;21600;-41
2022/05/26 07:29:03;;;;;;;2.00;1.70;;;;;;;14.72;76.31;98925.23;1750172;82;21283;-41
2022/05/26 07:31:30;;;;;;;2.55;1.45;;;;;;;14.78;73.96;98926.38;1749725;82;21033;-41
2022/05/26 07:33:57;;;;;;;3.40;1.40;;;;;;;14.91;73.46;98932.19;1749469;82;21076;-42
2022/05/26 07:42:07;;;;;;;2.30;1.50;;;;;;;15.36;71.95;98927.59;1749469;82;21246;-41
2022/05/26 07:44:37;;;;;;;1.23;1.13;;;;;;;15.55;69.14;98938.00;1749470;82;21043;-41
2022/05/26 07:47:07;;;;;;;1.87;1.27;;;;;;;15.82;68.48;98943.06;1749559;82;20980;-41
2022/05/26 07:49:35;;;;;;;1.30;1.20;;;;;;;16.02;66.07;98948.73;1749397;82;20931;-42
2022/05/26 07:52:02;;;;;;;3.05;1.35;;;;;;;16.07;65.08;98938.11;1749516;82;21054;-41
2022/05/26 07:54:29;;;;;;;3.95;1.20;;;;;;;16.05;64.21;98937.77;1749390;82;21232;-42
2022/05/26 07:56:58;;;;;;;1.47;1.27;;;;;;;16.04;65.06;98945.77;1749498;82;20924;-42
2022/05/26 07:59:25;;;;;;;2.72;1.05;;;;;;;16.01;65.21;98956.75;1749245;82;21048;-42
2022/05/26 08:01:51;;;;;;;1.70;1.32;;;;;;;16.01;64.52;98953.43;1749447;82;21540;-42
2022/05/26 08:04:18;;;;;;;1.87;1.30;;;;;;;16.07;64.73;98957.25;1749349;82;21010;-42
2022/05/26 08:06:47;;;;;;;4.28;1.47;;;;;;;16.20;65.01;98950.70;1750053;82;21886;-42
2022/05/26 08:09:17;;;;;;;1.65;0.98;;;;;;;16.40;64.25;98956.35;1750850;82;21016;-42
2022/05/26 08:11:45;;;;;;;3.65;1.10;;;;;;;16.62;63.47;98956.30;1714015;83;21859;-42
2022/05/26 08:14:11;;;;;;;2.47;1.30;;;;;;;16.86;62.74;98953.86;1714805;83;21032;-42
2022/05/26 08:16:39;;;;;;;2.25;1.37;;;;;;;17.07;61.10;98943.80;1714830;83;21036;-42
2022/05/26 08:19:06;;;;;;;1.90;1.20;;;;;;;17.17;61.03;98952.47;1714772;83;21245;-42
2022/05/26 08:21:33;;;;;;;1.92;0.90;;;;;;;17.22;59.06;98965.70;1708868;83;21516;-42
2022/05/26 08:24:00;;;;;;;1.87;0.98;;;;;;;17.23;58.34;98953.56;1706873;84;21017;-42
2022/05/26 08:26:33;;;;;;;5.80;1.20;;;;;;;17.21;58.35;98966.89;1707100;84;21080;-42
2022/05/26 08:28:57;;;;;;;1.27;1.10;;;;;;;17.19;57.75;98964.55;1706941;84;21069;-42
2022/05/26 08:31:25;;;;;;;1.47;1.12;;;;;;;17.19;58.49;98965.14;1707317;84;21146;-41
2022/05/26 08:33:52;;;;;;;1.50;1.10;;;;;;;17.24;58.64;98969.56;1707624;84;21021;-42
2022/05/26 08:36:23;;;;;;;1.72;1.20;;;;;;;17.30;57.69;98973.41;1707426;84;21029;-41
2022/05/26 08:38:52;;;;;;;1.20;1.10;;;;;;;17.29;57.72;98969.11;1707296;84;20973;-41
2022/05/26 08:41:30;;;;;;;2.47;1.20;;;;;;;17.35;58.13;98966.68;1707730;84;21562;-41
2022/05/26 08:44:10;;;;;;;2.58;1.00;;;;;;;17.49;57.02;98966.47;1707421;84;21252;-41
2022/05/26 08:47:05;;;;;;;2.55;1.20;;;;;;;17.66;57.09;98969.57;1686346;84;20922;-41
2022/05/26 08:49:58;;;;;;;2.33;1.30;;;;;;;17.74;56.43;98966.88;1707257;84;21039;-41
2022/05/26 08:53:00;;;;;;;1.42;1.00;;;;;;;17.69;55.97;98972.84;1742902;82;20918;-41
2022/05/26 08:55:41;;;;;;;2.55;1.00;;;;;;;17.61;55.03;98974.15;1742950;82;21025;-42
2022/05/26 08:58:18;;;;;;;2.85;1.00;;;;;;;17.67;56.64;98974.46;1742780;82;23116;-42
2022/05/26 09:00:50;;;;;;;2.85;1.10;;;;;;;17.83;54.32;98967.71;1742877;81;21001;-42
2022/05/26 09:03:26;;;;;;;;;;;;;;;17.99;53.23;98977.44;1745840;81;20942;-42
2022/05/26 09:06:10;;;;;;;2.77;0.93;;;;;;;18.19;52.70;98974.74;1742902;82;20117;-42
2022/05/26 09:14:01;;;;;;;2.47;1.30;;;;;;;18.70;50.78;98973.39;1743148;82;20962;-42
2022/05/26 09:16:30;;;;;;;2.98;1.10;;;;;;;18.79;50.83;98981.05;1742879;82;20969;-42
2022/05/26 09:19:11;;;;;;;1.72;1.07;;;;;;;18.85;50.15;98978.77;1743316;82;21057;-42
2022/05/26 09:21:39;;;;;;;3.50;0.98;;;;;;;18.90;50.79;98978.27;1751743;81;21004;-42
2022/05/26 09:24:26;;;;;;;2.40;1.00;;;;;;;18.98;49.83;98978.89;1756693;81;21523;-42
2022/05/26 09:27:26;;;;;;;3.77;1.00;;;;;;;19.08;49.41;98982.02;1756608;81;21008;-42
2022/05/26 09:29:54;;;;;;;1.75;1.00;;;;;;;19.19;49.06;98974.91;1756358;81;21064;-42
2022/05/26 09:32:23;;;;;;;2.60;0.80;;;;;;;19.31;48.94;98977.79;1756494;81;21803;-42
2022/05/26 09:35:13;;;;;;;1.50;1.17;;;;;;;19.36;48.24;98999.88;1739815;81;21115;-42
2022/05/26 09:37:45;;;;;;;1.85;0.90;;;;;;;19.36;47.89;98969.04;1756276;81;21226;-42
2022/05/26 09:40:15;;;;;;;;;;;;;;;19.37;48.15;98976.66;1759065;81;20977;-42
2022/05/26 09:42:42;;;;;;;2.08;1.10;;;;;;;19.47;48.30;98981.17;1756235;81;20144;-41
2022/05/26 09:45:13;;;;;;;1.85;1.10;;;;;;;19.52;48.44;98977.31;1756113;81;21043;-42
2022/05/26 09:47:57;;;;;;;4.05;1.20;;;;;;;19.75;48.26;98990.75;1756170;81;21004;-42
2022/05/26 09:50:47;;;;;;;4.42;1.10;;;;;;;19.89;46.77;98974.67;1756427;81;21058;-42
2022/05/26 09:53:13;;;;;;;1.50;1.00;;;;;;;20.02;45.79;98983.59;1756654;81;20953;-43
2022/05/26 09:55:48;;;;;;;1.92;1.00;;;;;;;20.15;45.44;98985.20;1756034;81;20933;-42
2022/05/26 09:58:39;;;;;;;1.90;1.00;;;;;;;20.33;44.26;98988.28;1756234;81;21000;-42
2022/05/26 10:01:27;;;;;;;2.52;0.82;;;;;;;20.48;44.19;98976.91;1756046;81;21016;-41
2022/05/26 10:04:25;;;;;;;2.15;0.82;;;;;;;20.58;42.63;98982.70;1720317;83;21237;-41
2022/05/26 10:07:19;;;;;;;1.22;0.90;;;;;;;20.58;42.39;98978.58;1720277;83;20996;-41
2022/05/26 10:10:23;;;;;;;3.30;1.00;;;;;;;20.55;44.54;98978.08;1720224;83;21029;-41
2022/05/26 10:13:13;;;;;;;2.52;1.20;;;;;;;20.57;43.56;98983.94;1720279;83;20999;-41
2022/05/26 10:15:58;;;;;;;2.35;1.10;;;;;;;20.65;42.93;98979.16;1720026;83;20997;-41
2022/05/26 10:18:58;;;;;;;1.40;0.98;;;;;;;20.73;42.38;98980.50;1720234;83;21251;-41
2022/05/26 10:21:42;;;;;;;1.45;0.88;;;;;;;20.89;41.96;98983.80;1714566;83;20930;-41
2022/05/26 10:24:37;;;;;;;1.70;0.90;;;;;;;21.03;42.74;98988.89;1742577;82;20969;-41
2022/05/26 10:27:16;;;;;;;5.75;1.20;;;;;;;21.11;40.99;98989.44;1678520;85;21093;-41
2022/05/26 10:30:07;;;;;;;0.82;0.62;;;;;;;21.10;41.72;98992.83;1678713;85;20933;-41
2022/05/26 10:32:58;;;;;;;4.97;1.02;;;;;;;21.11;40.52;98991.59;1678859;85;21145;-41
2022/05/26 10:36:01;;;;;;;2.83;0.70;;;;;;;21.11;39.72;99002.63;1712947;82;21281;-42
2022/05/26 10:38:56;;;;;;;1.15;0.80;;;;;;;21.12;38.58;99002.02;1678579;85;20976;-41
2022/05/26 10:41:43;;;;;;;2.05;1.00;;;;;;;21.28;39.05;99005.33;1713131;82;21076;-41
2022/05/26 10:44:34;;;;;;;1.87;0.98;;;;;;;21.56;38.26;99004.45;1678602;85;21056;-41
2022/05/26 10:47:12;;;;;;;2.98;0.90;;;;;;;21.70;37.92;99012.28;1713244;83;21571;-41
2022/05/26 10:49:49;;;;;;;1.67;1.15;;;;;;;21.68;37.29;99003.69;1678857;85;21035;-41
2022/05/26 10:52:33;;;;;;;1.45;0.90;;;;;;;21.69;37.69;98995.55;1713421;83;21041;-42
2022/05/26 10:55:11;;;;;;;1.85;1.10;;;;;;;21.67;38.31;98990.50;1678715;85;20984;-42
2022/05/26 10:57:45;;;;;;;1.22;0.80;;;;;;;21.57;39.56;99000.48;1678640;85;21542;-41
2022/05/26 11:00:18;;;;;;;5.62;1.00;;;;;;;21.50;39.65;98997.33;1678523;85;23142;-42
2022/05/26 11:03:07;;;;;;;1.98;1.10;;;;;;;21.51;40.63;99007.77;1678598;84;21015;-42
2022/05/26 11:05:48;;;;;;;3.95;1.35;;;;;;;21.42;39.45;98996.63;1713312;83;21029;-42
2022/05/26 11:08:42;;;;;;;3.22;1.10;;;;;;;21.29;39.50;99004.13;1713391;83;21029;-42
2022/05/26 11:11:26;;;;;;;3.10;1.00;;;;;;;21.38;38.68;99000.10;1678651;85;21052;-41
2022/05/26 11:17:22;;;;;;;2.37;1.10;;;;;;;21.61;38.89;98999.77;1713390;83;28270;-42
2022/05/26 11:20:13;;;;;;;3.80;1.10;;;;;;;21.75;38.56;99014.48;1678843;85;21036;-42
2022/05/26 11:22:45;;;;;;;3.55;1.07;;;;;;;21.89;37.35;99001.61;1713295;83;21042;-42
2022/05/26 11:25:18;;;;;;;4.78;1.02;;;;;;;21.89;37.44;99011.88;1713468;83;21025;-42
2022/05/26 11:28:15;;;;;;;4.35;0.88;;;;;;;21.96;36.62;98998.66;1678825;85;23181;-42
2022/05/26 11:36:59;;;;;;;3.22;1.12;;;;;;;22.62;35.92;99011.19;1678652;85;21615;-42
2022/05/26 11:39:38;;;;;;;;;;;;;;;22.59;35.48;99007.95;1711335;83;21049;-41
2022/05/26 11:42:15;;;;;;;1.90;1.20;;;;;;;22.52;36.43;99014.48;1713237;83;21154;-42
2022/05/26 11:44:45;;;;;;;3.15;1.50;;;;;;;22.27;36.15;99011.20;1653434;85;20961;-42
2022/05/26 11:47:23;;;;;;;7.87;1.32;;;;;;;22.09;37.05;99017.94;1713282;83;20990;-42
2022/05/26 11:49:58;;;;;;;1.72;1.07;;;;;;;22.10;38.17;99006.46;1701849;83;21046;-42
2022/05/26 11:52:37;;;;;;;4.50;1.27;;;;;;;22.32;36.86;99003.73;1673814;85;21583;-42
2022/05/26 11:55:18;;;;;;;3.70;1.60;;;;;;;22.54;36.82;99010.69;1678947;85;21193;-42
2022/05/26 11:57:53;;;;;;;4.60;1.35;;;;;;;22.57;35.38;99023.59;1713352;83;21076;-41
2022/05/26 12:00:40;;;;;;;5.58;1.60;;;;;;;22.38;36.03;99021.29;1679060;85;21610;-42
2022/05/26 12:03:26;;;;;;;8.25;1.37;;;;;;;22.37;36.96;99022.50;1678607;85;21562;-42
2022/05/26 12:06:04;;;;;;;3.15;1.20;;;;;;;22.51;36.46;99018.50;1713572;83;21737;-42
2022/05/26 12:09:00;;;;;;;6.03;1.17;;;;;;;22.68;35.13;99012.16;1678285;85;21370;-42
2022/05/26 12:11:53;;;;;;;2.70;1.02;;;;;;;22.67;35.78;99023.83;1678857;85;20965;-42
2022/05/26 12:14:34;;;;;;;1.85;1.20;;;;;;;22.74;35.96;99018.09;1713627;83;20962;-42
2022/05/26 12:17:32;;;;;;;3.25;1.37;;;;;;;22.98;36.00;99021.77;1713745;83;20969;-42
2022/05/26 12:20:17;;;;;;;2.98;1.70;;;;;;;23.05;35.69;99022.88;1708382;83;21572;-43
2022/05/26 12:22:58;;;;;;;2.72;1.17;;;;;;;22.94;35.39;99030.20;1722131;83;21101;-42
2022/05/26 12:25:35;;;;;;;3.72;1.20;;;;;;;23.08;36.30;99031.67;1691299;84;21014;-42
2022/05/26 12:28:13;;;;;;;4.55;1.40;;;;;;;23.14;34.88;99027.85;1691332;84;21550;-42
2022/05/26 12:30:52;;;;;;;6.37;1.57;;;;;;;23.09;34.68;99029.08;1691463;84;21055;-42
2022/05/26 12:33:24;;;;;;;2.65;1.37;;;;;;;22.85;34.73;99016.33;1689350;84;21043;-42
2022/05/26 12:36:15;;;;;;;4.08;1.27;;;;;;;22.54;35.47;99013.45;1690889;84;21106;-42
2022/05/26 12:39:19;;;;;;;3.65;1.27;;;;;;;22.23;35.97;99021.60;1691190;84;21048;-42
2022/05/26 12:42:31;;;;;;;4.28;1.60;;;;;;;21.91;36.40;99022.64;1691421;84;21015;-42
2022/05/26 12:45:42;;;;;;;4.67;1.32;;;;;;;21.69;37.26;99030.04;1691221;84;21609;-42
2022/05/26 12:48:37;;;;;;;4.10;1.60;;;;;;;21.50;38.25;99025.52;1691175;84;21338;-42
2022/05/26 12:51:10;;;;;;;2.67;1.52;;;;;;;21.26;38.26;99018.17;1691654;84;21081;-41